Time;durP1;ratioP1;P1;durP2;ratioP2;P2;SDS_P1;SDS_P2;PMS_P1;PMS_P2;Temp;Humidity;BMP_temperature;BMP_pressure;BME280_temperature;BME280_humidity;BME280_pressure;Samples;Min_cycle;Max_cycle;Signal;HPM_P1;HPM_P2
2021/07/03 07:48:11;;;;;;;5.28;2.40;;;19.80;99.90;;;;;;4328261;26;20221;-75
2021/07/03 07:50:38;;;;;;;3.42;2.65;;;19.80;99.90;;;;;;5013221;28;20591;-75
2021/07/03 07:53:05;;;;;;;5.30;2.72;;;20.00;99.90;;;;;;5009219;28;20232;-75
2021/07/03 07:55:32;;;;;;;4.78;2.15;;;20.20;99.90;;;;;;4993623;28;20687;-74
2021/07/03 07:57:58;;;;;;;3.08;2.35;;;20.30;99.90;;;;;;4993611;28;20679;-75
2021/07/03 08:00:25;;;;;;;3.67;2.58;;;20.40;99.90;;;;;;4993576;28;20213;-74
2021/07/03 08:02:53;;;;;;;3.03;2.15;;;20.70;99.90;;;;;;4993809;28;20221;-75
2021/07/03 08:05:21;;;;;;;4.18;2.75;;;20.80;99.90;;;;;;4994242;28;20211;-74
2021/07/03 08:07:48;;;;;;;4.47;2.75;;;20.90;99.90;;;;;;4993951;28;20215;-75
2021/07/03 08:10:15;;;;;;;6.22;2.60;;;20.90;99.90;;;;;;4993709;28;20206;-75
2021/07/03 08:12:42;;;;;;;4.07;2.55;;;21.00;99.90;;;;;;4993577;28;20299;-75
2021/07/03 08:15:10;;;;;;;3.75;2.38;;;21.10;99.90;;;;;;4993568;28;20206;-75
2021/07/03 08:17:42;;;;;;;6.63;2.30;;;20.90;99.90;;;;;;4993682;28;20542;-74
2021/07/03 08:20:12;;;;;;;4.68;3.33;;;20.70;99.90;;;;;;4993129;28;20211;-75
2021/07/03 08:22:40;;;;;;;3.65;2.30;;;20.60;99.90;;;;;;4993736;28;20202;-76
2021/07/03 08:25:07;;;;;;;2.97;2.35;;;20.70;99.90;;;;;;4993649;28;20642;-75
2021/07/03 08:27:34;;;;;;;5.40;2.42;;;20.80;99.90;;;;;;4993415;28;20565;-75
2021/07/03 08:30:01;;;;;;;6.72;2.85;;;20.60;99.90;;;;;;4993666;28;20683;-74
2021/07/03 08:32:27;;;;;;;6.57;2.50;;;20.50;99.90;;;;;;4993403;28;20234;-75
2021/07/03 08:34:54;;;;;;;4.70;2.63;;;20.60;99.90;;;;;;4993455;28;20230;-75
2021/07/03 08:37:21;;;;;;;4.03;2.53;;;20.70;99.90;;;;;;4993559;28;20202;-74
2021/07/03 08:39:49;;;;;;;4.10;2.70;;;20.60;99.90;;;;;;4993388;28;20213;-74
2021/07/03 08:42:16;;;;;;;4.68;2.38;;;20.60;99.90;;;;;;4993307;28;20214;-74
2021/07/03 08:44:46;;;;;;;3.83;2.67;;;20.50;99.90;;;;;;4993638;28;20233;-74
2021/07/03 08:47:13;;;;;;;4.80;2.65;;;20.60;99.90;;;;;;4993157;28;20273;-75
2021/07/03 08:49:39;;;;;;;3.08;2.25;;;20.50;99.90;;;;;;4993551;28;20213;-74
2021/07/03 08:52:07;;;;;;;5.10;2.63;;;20.60;99.90;;;;;;4993418;28;20237;-75
2021/07/03 08:54:33;;;;;;;5.32;2.78;;;20.80;99.90;;;;;;4993229;28;20238;-75
2021/07/03 08:57:02;;;;;;;3.55;3.03;;;20.90;99.90;;;;;;4993552;28;20217;-75
2021/07/03 08:59:30;;;;;;;3.85;2.60;;;21.00;99.90;;;;;;4993461;28;20212;-75
2021/07/03 09:01:59;;;;;;;3.35;2.53;;;21.10;99.90;;;;;;4993351;28;20206;-75
2021/07/03 09:04:39;;;;;;;5.82;2.63;;;21.30;99.90;;;;;;4993127;28;20226;-75
2021/07/03 09:07:13;;;;;;;3.53;2.42;;;21.20;99.90;;;;;;4993303;28;20550;-75
2021/07/03 09:09:40;;;;;;;4.75;2.70;;;21.10;99.90;;;;;;4993322;28;20288;-75
2021/07/03 09:12:09;;;;;;;5.45;2.85;;;21.10;99.90;;;;;;4993084;28;20446;-75
2021/07/03 09:14:36;;;;;;;3.90;2.70;;;21.00;99.90;;;;;;4993124;28;20222;-76
2021/07/03 09:17:04;;;;;;;3.67;2.80;;;20.90;99.90;;;;;;4992988;28;20212;-76
2021/07/03 09:19:32;;;;;;;4.20;2.58;;;21.00;99.90;;;;;;4993051;28;20213;-75
2021/07/03 09:21:59;;;;;;;3.72;2.63;;;21.10;99.90;;;;;;4993048;28;20275;-75
2021/07/03 09:24:31;;;;;;;4.07;2.55;;;20.90;99.90;;;;;;4993085;28;20222;-75
2021/07/03 09:26:59;;;;;;;4.28;2.53;;;20.80;99.90;;;;;;4992922;28;20210;-75
2021/07/03 09:29:28;;;;;;;4.72;2.25;;;20.90;99.90;;;;;;4992927;28;20669;-75
2021/07/03 09:31:55;;;;;;;4.30;2.60;;;20.90;99.90;;;;;;4995789;28;20234;-75
2021/07/03 09:34:23;;;;;;;4.93;2.45;;;21.00;99.90;;;;;;4996096;28;20237;-75
2021/07/03 09:36:50;;;;;;;3.42;2.20;;;21.00;99.90;;;;;;4996704;28;20565;-76
2021/07/03 09:39:25;;;;;;;4.30;2.47;;;21.10;99.90;;;;;;4996333;28;20206;-75
2021/07/03 09:41:52;;;;;;;4.93;3.05;;;21.10;99.90;;;;;;4996374;28;20329;-75
2021/07/03 09:44:19;;;;;;;3.08;2.15;;;21.10;99.90;;;;;;4996260;28;20704;-75
2021/07/03 09:46:51;;;;;;;3.65;2.42;;;21.00;99.90;;;;;;4996089;28;20225;-76
2021/07/03 09:49:19;;;;;;;4.80;2.22;;;21.00;99.90;;;;;;4995993;28;20217;-75
2021/07/03 09:51:48;;;;;;;3.00;2.22;;;21.10;99.90;;;;;;4996306;28;20324;-79
2021/07/03 09:54:16;;;;;;;4.30;2.63;;;21.10;99.90;;;;;;4995737;28;20235;-75
2021/07/03 09:56:44;;;;;;;4.93;2.45;;;21.10;99.90;;;;;;4995895;28;20549;-75
2021/07/03 09:59:12;;;;;;;4.05;2.42;;;21.10;99.90;;;;;;4995828;28;20208;-75
2021/07/03 10:01:40;;;;;;;2.97;2.20;;;21.10;99.90;;;;;;4995989;28;20700;-74
2021/07/03 10:04:09;;;;;;;4.18;2.35;;;21.30;99.90;;;;;;4995676;28;20226;-74
2021/07/03 10:06:43;;;;;;;4.18;2.50;;;21.30;99.90;;;;;;4996033;28;20203;-75
2021/07/03 10:09:13;;;;;;;2.85;2.22;;;21.60;99.90;;;;;;4995684;28;20210;-75
2021/07/03 10:11:45;;;;;;;5.03;2.35;;;21.60;99.90;;;;;;4995739;28;20241;-74
2021/07/03 10:14:13;;;;;;;3.25;2.55;;;21.60;99.90;;;;;;4995588;28;20222;-75
2021/07/03 10:16:40;;;;;;;5.30;2.67;;;21.60;99.90;;;;;;4995939;28;20301;-77
2021/07/03 10:19:14;;;;;;;3.60;2.28;;;21.70;99.90;;;;;;4995664;28;20210;-76
2021/07/03 10:21:41;;;;;;;4.20;2.22;;;21.90;99.90;;;;;;4995668;28;20210;-75
2021/07/03 10:24:20;;;;;;;3.25;2.25;;;21.80;99.90;;;;;;4980650;28;20744;-74
2021/07/03 10:26:47;;;;;;;4.82;2.75;;;22.00;99.90;;;;;;4990289;28;20213;-74
2021/07/03 10:29:20;;;;;;;3.85;2.13;;;21.90;99.90;;;;;;4983005;28;20207;-74
2021/07/03 10:31:48;;;;;;;3.17;2.30;;;21.80;99.90;;;;;;4986235;28;20763;-74
2021/07/03 10:34:27;;;;;;;3.47;2.50;;;22.00;99.90;;;;;;4982345;28;20712;-74
2021/07/03 10:36:59;;;;;;;3.28;2.33;;;22.10;99.90;;;;;;4985212;28;20218;-74
2021/07/03 10:39:30;;;;;;;8.07;2.70;;;22.30;99.90;;;;;;4988331;28;20202;-74
2021/07/03 10:41:57;;;;;;;2.78;2.28;;;22.50;99.90;;;;;;4983351;28;20209;-75
2021/07/03 10:44:24;;;;;;;2.92;2.35;;;22.80;99.90;;;;;;4982573;28;20223;-75
2021/07/03 10:46:54;;;;;;;3.78;2.33;;;22.70;99.90;;;;;;4990484;28;20221;-73
2021/07/03 10:49:32;;;;;;;2.90;2.13;;;22.70;99.90;;;;;;4983370;28;20209;-74
2021/07/03 10:52:11;;;;;;;3.70;2.25;;;22.90;99.90;;;;;;4989490;28;20712;-74
2021/07/03 10:54:38;;;;;;;4.72;2.70;;;22.90;99.90;;;;;;4983085;28;20231;-75
2021/07/03 10:57:07;;;;;;;3.75;2.25;;;23.00;99.90;;;;;;4989656;28;20207;-74
2021/07/03 10:59:37;;;;;;;4.18;2.60;;;22.70;99.90;;;;;;4985213;28;20571;-76
2021/07/03 11:02:09;;;;;;;6.82;2.80;;;22.60;99.90;;;;;;4983545;28;20239;-75
2021/07/03 11:04:48;;;;;;;3.35;2.30;;;22.60;99.90;;;;;;4986342;28;20229;-75
2021/07/03 11:07:32;;;;;;;4.13;2.20;;;22.40;99.90;;;;;;4982034;28;20213;-75
2021/07/03 11:10:06;;;;;;;5.63;2.42;;;22.20;99.90;;;;;;4984593;28;20658;-75
2021/07/03 11:12:44;;;;;;;2.95;2.30;;;22.30;99.90;;;;;;4982827;28;20238;-75
2021/07/03 11:15:13;;;;;;;3.47;2.03;;;22.40;99.90;;;;;;4990065;28;20210;-74
2021/07/03 11:17:40;;;;;;;3.92;2.42;;;22.60;99.90;;;;;;4983605;28;20207;-75
2021/07/03 11:20:09;;;;;;;4.65;2.00;;;23.10;99.90;;;;;;4983749;28;20204;-75
2021/07/03 11:22:43;;;;;;;2.92;2.10;;;23.40;99.90;;;;;;4988213;28;20207;-75
2021/07/03 11:25:10;;;;;;;3.63;2.10;;;23.70;99.90;;;;;;4988691;28;20206;-75
2021/07/03 11:27:40;;;;;;;5.22;2.55;;;23.80;99.90;;;;;;4989043;28;20206;-74
2021/07/03 11:30:16;;;;;;;3.38;2.50;;;24.10;99.90;;;;;;4981988;28;20236;-75
2021/07/03 11:32:49;;;;;;;2.72;1.90;;;24.50;99.90;;;;;;4982285;28;20238;-75
2021/07/03 11:35:17;;;;;;;3.42;1.80;;;24.40;99.90;;;;;;4988477;28;20546;-75
2021/07/03 11:37:44;;;;;;;3.25;2.55;;;24.30;99.90;;;;;;4985297;28;20221;-75
2021/07/03 11:40:13;;;;;;;3.13;2.42;;;24.50;99.90;;;;;;4985419;28;20569;-75
2021/07/03 11:42:44;;;;;;;3.20;2.25;;;24.80;99.90;;;;;;4984679;28;20683;-75
2021/07/03 11:45:13;;;;;;;3.20;2.40;;;25.10;99.90;;;;;;4982360;28;20729;-74
2021/07/03 11:47:42;;;;;;;3.22;2.22;;;24.90;99.90;;;;;;4982304;28;20214;-75
2021/07/03 11:50:11;;;;;;;2.35;1.98;;;24.70;99.90;;;;;;4979144;28;20213;-75
2021/07/03 11:52:47;;;;;;;3.83;2.33;;;24.70;99.90;;;;;;4988917;28;20601;-74
2021/07/03 11:55:16;;;;;;;2.67;2.17;;;24.50;99.90;;;;;;4987601;28;20202;-75
2021/07/03 11:57:44;;;;;;;3.75;2.22;;;24.60;99.90;;;;;;4985653;28;20207;-75
2021/07/03 12:00:13;;;;;;;4.55;2.60;;;24.60;99.90;;;;;;4991529;28;20202;-75
2021/07/03 12:02:41;;;;;;;3.60;2.30;;;24.40;99.90;;;;;;4981334;28;20211;-75
2021/07/03 12:05:09;;;;;;;3.47;2.20;;;24.40;99.90;;;;;;4973726;28;20680;-74
2021/07/03 12:07:36;;;;;;;3.30;2.30;;;24.40;99.90;;;;;;4973864;28;20670;-74
2021/07/03 12:10:06;;;;;;;3.63;2.10;;;24.50;99.90;;;;;;4973780;28;20462;-75
2021/07/03 12:12:33;;;;;;;3.20;2.22;;;24.40;99.90;;;;;;4973043;28;20235;-75
2021/07/03 12:15:02;;;;;;;3.08;1.95;;;24.60;99.90;;;;;;4973751;28;20721;-76
2021/07/03 12:17:29;;;;;;;3.00;2.17;;;24.60;99.90;;;;;;4973922;28;20249;-74
2021/07/03 12:20:07;;;;;;;2.53;2.10;;;24.70;99.90;;;;;;4972958;28;20214;-76
2021/07/03 12:22:34;;;;;;;2.38;2.05;;;24.70;99.90;;;;;;4976659;28;20205;-76
2021/07/03 12:25:13;;;;;;;2.90;2.22;;;24.90;99.90;;;;;;4992586;28;20237;-75
2021/07/03 12:27:40;;;;;;;2.92;2.17;;;24.70;99.90;;;;;;4993201;28;20206;-74
2021/07/03 12:30:09;;;;;;;3.28;2.40;;;24.80;99.90;;;;;;4993554;28;20538;-75
2021/07/03 12:32:36;;;;;;;5.25;2.88;;;24.80;99.90;;;;;;4992894;28;20238;-75
2021/07/03 12:35:13;;;;;;;3.88;2.38;;;24.80;99.90;;;;;;4993355;28;20547;-74
2021/07/03 12:37:40;;;;;;;3.30;2.22;;;24.60;99.90;;;;;;4992798;28;20220;-74
2021/07/03 12:40:16;;;;;;;3.10;2.30;;;24.50;99.90;;;;;;4993682;28;20208;-73
2021/07/03 12:42:45;;;;;;;3.63;2.33;;;24.60;99.90;;;;;;4993447;28;20205;-75
2021/07/03 12:45:11;;;;;;;2.70;1.88;;;24.80;99.90;;;;;;4993048;28;20210;-76
2021/07/03 12:47:39;;;;;;;3.28;2.15;;;24.80;99.90;;;;;;4992778;28;20215;-75
2021/07/03 12:50:08;;;;;;;4.15;2.22;;;25.20;99.90;;;;;;4992924;28;20210;-76
2021/07/03 12:52:38;;;;;;;4.88;2.30;;;25.20;99.90;;;;;;4992626;28;20272;-75
2021/07/03 12:55:07;;;;;;;2.80;2.10;;;25.20;99.90;;;;;;4993076;28;20712;-77
2021/07/03 12:57:43;;;;;;;3.63;2.58;;;25.20;99.90;;;;;;4993259;28;20206;-77
2021/07/03 13:00:12;;;;;;;2.88;2.30;;;25.20;99.90;;;;;;4992794;28;20214;-76
2021/07/03 13:02:38;;;;;;;6.15;2.67;;;25.40;99.90;;;;;;4992899;28;20689;-76
2021/07/03 13:05:07;;;;;;;3.22;2.20;;;25.70;99.90;;;;;;4993356;28;20210;-76
2021/07/03 13:07:34;;;;;;;2.97;2.53;;;25.50;99.90;;;;;;4996475;28;20567;-77
2021/07/03 13:10:01;;;;;;;3.70;2.35;;;25.10;99.90;;;;;;4997168;28;20211;-76
2021/07/03 13:12:28;;;;;;;4.28;2.33;;;25.20;99.90;;;;;;4995590;28;20233;-76
2021/07/03 13:14:56;;;;;;;4.82;2.60;;;25.50;99.90;;;;;;4996358;28;20236;-77
2021/07/03 13:17:23;;;;;;;5.07;2.35;;;25.40;99.90;;;;;;4996285;28;20206;-76
2021/07/03 13:19:49;;;;;;;3.70;2.45;;;25.60;99.90;;;;;;4996803;28;20588;-76
2021/07/03 13:22:16;;;;;;;3.65;2.40;;;25.80;99.90;;;;;;4996500;28;20683;-75
2021/07/03 13:24:44;;;;;;;3.25;2.33;;;25.30;99.90;;;;;;4996683;28;20222;-76
2021/07/03 13:27:11;;;;;;;3.92;2.50;;;25.40;99.90;;;;;;4996647;28;20264;-75
2021/07/03 13:29:38;;;;;;;4.65;3.03;;;25.30;99.90;;;;;;4996332;28;20210;-75
2021/07/03 13:32:07;;;;;;;6.18;3.15;;;25.10;99.90;;;;;;4996483;28;20230;-80
2021/07/03 13:34:35;;;;;;;4.85;2.95;;;24.60;99.90;;;;;;4996175;28;20570;-75
2021/07/03 13:37:02;;;;;;;3.67;2.53;;;24.20;99.90;;;;;;4996130;28;20202;-76
2021/07/03 13:39:28;;;;;;;7.57;4.07;;;23.80;99.90;;;;;;4996278;28;20298;-75
2021/07/03 13:41:55;;;;;;;5.85;3.30;;;23.20;99.90;;;;;;4996258;28;20216;-77
2021/07/03 13:44:22;;;;;;;5.25;3.30;;;22.50;99.90;;;;;;4996880;28;20227;-76
2021/07/03 13:46:49;;;;;;;4.63;3.17;;;22.30;99.90;;;;;;4995463;28;20694;-76
2021/07/03 13:49:17;;;;;;;5.57;3.35;;;22.20;99.90;;;;;;4995901;28;20289;-76
2021/07/03 13:51:44;;;;;;;5.68;3.90;;;21.80;99.90;;;;;;4995840;28;20217;-76
2021/07/03 13:54:10;;;;;;;4.13;2.65;;;21.70;99.90;;;;;;4996006;28;20242;-76
2021/07/03 13:56:37;;;;;;;9.32;3.55;;;21.50;99.90;;;;;;4996016;28;20213;-75
2021/07/03 13:59:04;;;;;;;3.40;2.53;;;21.50;99.90;;;;;;4995673;28;20573;-76
2021/07/03 14:01:31;;;;;;;6.10;3.17;;;21.50;99.90;;;;;;4995883;28;20236;-77
2021/07/03 14:03:59;;;;;;;4.13;2.90;;;21.60;99.90;;;;;;4995392;28;20226;-75
2021/07/03 14:06:27;;;;;;;4.78;2.47;;;21.60;99.90;;;;;;4995289;28;20210;-76
2021/07/03 14:08:54;;;;;;;4.88;2.80;;;21.50;99.90;;;;;;4995604;28;20203;-78
2021/07/03 14:11:21;;;;;;;6.20;2.78;;;21.60;99.90;;;;;;4995517;28;20213;-76
2021/07/03 14:13:47;;;;;;;3.47;2.55;;;21.80;99.90;;;;;;4995598;28;20245;-76
2021/07/03 14:16:14;;;;;;;3.10;2.13;;;21.90;99.90;;;;;;4995989;28;20202;-76
2021/07/03 14:18:41;;;;;;;3.83;2.45;;;22.10;99.90;;;;;;4993612;28;20206;-76
2021/07/03 14:21:08;;;;;;;3.10;2.42;;;22.30;99.90;;;;;;4994606;28;20199;-76
2021/07/03 14:23:36;;;;;;;4.28;2.38;;;22.60;99.90;;;;;;4994535;28;20218;-75
2021/07/03 14:26:03;;;;;;;3.97;2.40;;;22.80;99.90;;;;;;4992225;28;20205;-76
2021/07/03 14:28:30;;;;;;;4.18;2.20;;;22.90;99.90;;;;;;4994914;28;20194;-76
2021/07/03 14:30:56;;;;;;;5.03;2.45;;;23.00;99.90;;;;;;4994012;28;20238;-77
2021/07/03 14:33:24;;;;;;;3.10;1.90;;;23.10;99.90;;;;;;4993116;28;20245;-76
2021/07/03 14:35:51;;;;;;;3.13;2.17;;;23.10;99.90;;;;;;4992973;28;20233;-77
2021/07/03 14:38:18;;;;;;;4.65;2.30;;;23.10;99.90;;;;;;4992899;28;20210;-78
2021/07/03 14:40:46;;;;;;;2.58;1.98;;;23.00;99.90;;;;;;4993098;28;20213;-78
2021/07/03 14:43:13;;;;;;;4.18;2.60;;;22.80;99.90;;;;;;4994714;28;20230;-76
2021/07/03 14:45:39;;;;;;;4.30;2.65;;;22.40;99.90;;;;;;4994888;28;20214;-77
2021/07/03 14:48:06;;;;;;;3.97;1.60;;;21.90;99.90;;;;;;4994943;28;20569;-75
2021/07/03 14:50:36;;;;;;;4.38;1.10;;;21.20;99.90;;;;;;4995171;28;20210;-76
2021/07/03 14:53:03;;;;;;;2.25;1.13;;;20.50;99.90;;;;;;4994777;28;20635;-76
2021/07/03 14:55:30;;;;;;;2.97;1.25;;;20.10;99.90;;;;;;4995002;28;20210;-76
2021/07/03 14:57:58;;;;;;;2.35;1.17;;;19.90;99.90;;;;;;4995026;28;20210;-78
2021/07/03 15:00:24;;;;;;;1.92;1.00;;;19.80;99.90;;;;;;4994843;28;20202;-76
2021/07/03 15:02:51;;;;;;;2.80;1.00;;;19.80;99.90;;;;;;4994857;28;20211;-76
2021/07/03 15:05:18;;;;;;;4.00;1.35;;;19.80;99.90;;;;;;4994842;28;20202;-76
2021/07/03 15:07:45;;;;;;;2.70;1.02;;;19.90;99.90;;;;;;4994729;28;20538;-77
2021/07/03 15:10:13;;;;;;;3.40;1.30;;;20.00;99.90;;;;;;4994545;28;20219;-76
2021/07/03 15:12:40;;;;;;;2.33;1.40;;;20.00;99.90;;;;;;4994306;28;20231;-77
2021/07/03 15:15:09;;;;;;;2.22;1.67;;;20.10;99.90;;;;;;4994757;28;20218;-76
2021/07/03 15:17:35;;;;;;;2.35;1.45;;;20.10;99.90;;;;;;4994576;28;20213;-77
2021/07/03 15:20:02;;;;;;;3.72;1.55;;;20.20;99.90;;;;;;4994153;28;20217;-78
2021/07/03 15:22:29;;;;;;;2.97;1.63;;;20.10;99.90;;;;;;4994580;28;20216;-76
2021/07/03 15:24:56;;;;;;;3.25;1.63;;;20.20;99.90;;;;;;4994300;28;20721;-77
2021/07/03 15:27:23;;;;;;;2.22;1.80;;;20.30;99.90;;;;;;4994502;28;20228;-77
2021/07/03 15:29:49;;;;;;;2.63;1.88;;;20.40;99.90;;;;;;4994350;28;20211;-77
2021/07/03 15:32:17;;;;;;;4.05;1.70;;;20.40;99.90;;;;;;4994002;28;20688;-77
2021/07/03 15:34:44;;;;;;;2.42;1.63;;;20.40;99.90;;;;;;4993991;28;20230;-76
2021/07/03 15:37:11;;;;;;;3.72;1.65;;;20.40;99.90;;;;;;4994330;28;20213;-76
2021/07/03 15:39:38;;;;;;;3.10;1.90;;;20.50;99.90;;;;;;4994437;28;20213;-76
2021/07/03 15:42:05;;;;;;;3.20;1.63;;;20.60;99.90;;;;;;4993912;28;20644;-76
2021/07/03 15:44:31;;;;;;;3.13;1.70;;;20.60;99.90;;;;;;4994110;28;20594;-78
2021/07/03 15:46:58;;;;;;;3.67;1.92;;;20.70;99.90;;;;;;4993982;28;20214;-76
2021/07/03 15:49:26;;;;;;;2.50;1.63;;;20.70;99.90;;;;;;4993887;28;20687;-76
2021/07/03 15:51:53;;;;;;;3.72;1.77;;;20.70;99.90;;;;;;4994455;28;20213;-76
2021/07/03 15:54:20;;;;;;;3.15;1.45;;;20.90;99.90;;;;;;4993788;28;20693;-76
2021/07/03 15:56:47;;;;;;;1.98;1.50;;;21.00;99.90;;;;;;4993992;28;20206;-76
2021/07/03 15:59:14;;;;;;;4.63;2.30;;;20.90;99.90;;;;;;4993997;28;20206;-76
2021/07/03 16:01:40;;;;;;;3.65;2.30;;;20.80;99.90;;;;;;4993924;28;20210;-77
2021/07/03 16:04:08;;;;;;;2.22;1.75;;;20.70;99.90;;;;;;4993832;28;20226;-76
2021/07/03 16:06:36;;;;;;;3.25;1.80;;;20.40;99.90;;;;;;4993826;28;20277;-76
2021/07/03 16:09:03;;;;;;;2.53;1.50;;;20.30;99.90;;;;;;4993903;28;20202;-77
2021/07/03 16:11:30;;;;;;;2.20;1.70;;;20.00;99.90;;;;;;4993945;28;20206;-76
2021/07/03 16:13:57;;;;;;;3.20;1.55;;;20.10;99.90;;;;;;4993525;28;20238;-77
2021/07/03 16:16:24;;;;;;;3.03;1.60;;;20.10;99.90;;;;;;4993275;28;20244;-77
2021/07/03 16:18:51;;;;;;;2.28;1.70;;;20.20;99.90;;;;;;4993647;28;20559;-77
2021/07/03 16:21:18;;;;;;;3.28;1.60;;;20.40;99.90;;;;;;4993854;28;20225;-76
2021/07/03 16:23:46;;;;;;;2.38;1.73;;;20.50;99.90;;;;;;4993627;28;20226;-76
2021/07/03 16:26:13;;;;;;;2.20;1.70;;;20.60;99.90;;;;;;4993489;28;20216;-78
2021/07/03 16:28:39;;;;;;;2.83;1.60;;;20.70;99.90;;;;;;4993437;28;20218;-76
2021/07/03 16:31:06;;;;;;;3.15;1.63;;;20.60;99.90;;;;;;4993800;28;20588;-76
2021/07/03 16:33:33;;;;;;;3.72;1.50;;;20.50;99.90;;;;;;4989791;28;20242;-76
2021/07/03 16:36:00;;;;;;;3.53;1.55;;;20.50;99.90;;;;;;4980949;28;20213;-77
2021/07/03 16:38:27;;;;;;;2.78;1.70;;;20.50;99.90;;;;;;4987873;28;20210;-77
2021/07/03 16:40:55;;;;;;;2.30;1.50;;;20.50;99.90;;;;;;4980032;28;20207;-76
2021/07/03 16:43:22;;;;;;;1.90;1.30;;;20.50;99.90;;;;;;4987614;28;20230;-77
2021/07/03 16:45:49;;;;;;;2.35;1.45;;;20.50;99.90;;;;;;4996315;28;20206;-76
2021/07/03 16:48:16;;;;;;;1.67;1.30;;;20.30;99.90;;;;;;4988103;28;20214;-77
2021/07/03 16:50:43;;;;;;;2.97;1.48;;;20.10;99.90;;;;;;4987557;28;20206;-77
2021/07/03 16:53:10;;;;;;;1.90;1.30;;;20.10;99.90;;;;;;4988627;28;20237;-77
2021/07/03 16:55:37;;;;;;;2.45;1.30;;;20.00;99.90;;;;;;4990162;28;20207;-77
2021/07/03 16:58:05;;;;;;;1.88;1.15;;;20.00;99.90;;;;;;4990313;28;20673;-76
2021/07/03 17:00:32;;;;;;;2.00;1.50;;;19.90;99.90;;;;;;4986211;28;20629;-77
2021/07/03 17:02:59;;;;;;;1.87;1.40;;;20.00;99.90;;;;;;4994259;28;20229;-77
2021/07/03 17:05:26;;;;;;;2.13;1.33;;;20.00;99.90;;;;;;4982307;28;20222;-77
2021/07/03 17:07:52;;;;;;;1.75;1.17;;;20.10;99.90;;;;;;4988377;28;20218;-76
2021/07/03 17:10:19;;;;;;;4.68;1.40;;;20.10;99.90;;;;;;4995425;28;20210;-77
2021/07/03 17:12:46;;;;;;;1.98;1.30;;;20.10;99.90;;;;;;4996251;28;20568;-77
2021/07/03 17:15:15;;;;;;;3.38;1.50;;;20.10;99.90;;;;;;4996619;28;20234;-76
2021/07/03 17:17:42;;;;;;;2.08;1.27;;;20.00;99.90;;;;;;4996834;28;20213;-76
2021/07/03 17:20:10;;;;;;;2.08;1.27;;;19.90;99.90;;;;;;4996514;28;20203;-76
2021/07/03 17:22:38;;;;;;;1.58;1.10;;;19.70;99.90;;;;;;4996484;28;20681;-77
2021/07/03 17:25:06;;;;;;;1.83;1.10;;;19.60;99.90;;;;;;4996106;28;20206;-77
2021/07/03 17:27:34;;;;;;;2.07;1.30;;;19.50;99.90;;;;;;4996118;28;20206;-79
2021/07/03 17:30:01;;;;;;;1.63;1.25;;;19.50;99.90;;;;;;4996197;28;20569;-76
2021/07/03 17:32:29;;;;;;;1.83;1.15;;;19.70;99.90;;;;;;4996470;28;20212;-76
2021/07/03 17:34:56;;;;;;;2.90;1.70;;;19.80;99.90;;;;;;4996330;28;20242;-77
2021/07/03 17:37:23;;;;;;;2.45;1.27;;;19.80;99.90;;;;;;4996386;28;20214;-76
2021/07/03 17:39:50;;;;;;;1.45;1.20;;;19.90;99.90;;;;;;4996224;28;20728;-76
2021/07/03 17:42:17;;;;;;;2.38;1.30;;;20.10;99.90;;;;;;4996384;28;20206;-76
2021/07/03 17:44:44;;;;;;;2.97;1.50;;;20.20;99.90;;;;;;4996275;28;20226;-76
2021/07/03 17:47:11;;;;;;;2.92;1.65;;;20.30;99.90;;;;;;4996069;28;20284;-76
2021/07/03 17:49:39;;;;;;;2.33;1.20;;;20.40;99.90;;;;;;4996337;28;20213;-76
2021/07/03 17:52:07;;;;;;;2.40;1.45;;;20.60;99.90;;;;;;4996230;28;20658;-78
2021/07/03 17:54:34;;;;;;;1.75;1.20;;;20.70;99.90;;;;;;4995966;28;20249;-77
2021/07/03 17:57:03;;;;;;;1.65;1.27;;;20.80;99.90;;;;;;4996351;28;20662;-76
2021/07/03 17:59:30;;;;;;;1.50;1.17;;;20.90;99.90;;;;;;4996240;28;20206;-76
2021/07/03 18:01:58;;;;;;;1.70;1.38;;;20.90;99.90;;;;;;4995975;28;20614;-77
2021/07/03 18:04:24;;;;;;;1.92;1.20;;;20.60;99.90;;;;;;4995734;28;20231;-77
2021/07/03 18:06:53;;;;;;;1.70;1.20;;;20.40;99.90;;;;;;4995898;28;20561;-76
2021/07/03 18:09:20;;;;;;;2.03;1.13;;;20.10;99.90;;;;;;4995813;28;20206;-76
2021/07/03 18:11:48;;;;;;;2.25;1.40;;;19.90;99.90;;;;;;4996091;28;20209;-77
2021/07/03 18:14:15;;;;;;;2.45;1.10;;;20.00;99.90;;;;;;4995468;28;20315;-76
2021/07/03 18:16:43;;;;;;;2.63;1.50;;;20.00;99.90;;;;;;4995690;28;20208;-77
2021/07/03 18:19:10;;;;;;;2.85;1.67;;;20.10;99.90;;;;;;4995672;28;20209;-77
2021/07/03 18:21:39;;;;;;;1.70;1.20;;;20.20;99.90;;;;;;4997209;28;20207;-77
2021/07/03 18:24:11;;;;;;;2.80;1.60;;;20.40;99.90;;;;;;4996022;28;20230;-76
2021/07/03 18:26:38;;;;;;;4.55;1.70;;;20.50;99.90;;;;;;4995945;28;20213;-76
2021/07/03 18:29:05;;;;;;;2.38;1.77;;;20.40;99.90;;;;;;4995519;28;20300;-76
2021/07/03 18:31:32;;;;;;;3.28;1.75;;;20.40;99.90;;;;;;4995457;28;20219;-76
2021/07/03 18:33:59;;;;;;;2.10;1.50;;;20.40;99.90;;;;;;4994955;28;20237;-76
2021/07/03 18:36:26;;;;;;;3.72;1.80;;;20.50;99.90;;;;;;4995678;28;20202;-76
2021/07/03 18:38:52;;;;;;;2.30;1.70;;;20.40;99.90;;;;;;4995536;28;20728;-75
2021/07/03 18:41:20;;;;;;;1.98;1.48;;;20.50;99.90;;;;;;4995446;28;20206;-76
2021/07/03 18:43:47;;;;;;;1.63;1.40;;;20.20;99.90;;;;;;4995167;28;20237;-76
2021/07/03 18:46:14;;;;;;;1.58;1.40;;;20.10;99.90;;;;;;4995025;28;20212;-76
2021/07/03 18:48:41;;;;;;;2.50;1.50;;;20.10;99.90;;;;;;4994957;28;20574;-76
2021/07/03 18:51:08;;;;;;;2.20;1.50;;;20.10;99.90;;;;;;4994934;28;20203;-76
2021/07/03 18:53:36;;;;;;;3.90;1.73;;;20.20;99.90;;;;;;4994563;28;20226;-76
2021/07/03 18:56:03;;;;;;;2.78;1.75;;;20.40;99.90;;;;;;4994707;28;20249;-76
2021/07/03 18:58:32;;;;;;;2.45;1.67;;;20.40;99.90;;;;;;4995072;28;20206;-76
2021/07/03 19:00:59;;;;;;;2.30;1.85;;;20.50;99.90;;;;;;4994692;28;20217;-74
2021/07/03 19:03:26;;;;;;;3.28;1.83;;;20.60;99.90;;;;;;4995204;28;20722;-76
2021/07/03 19:05:52;;;;;;;2.45;1.80;;;20.70;99.90;;;;;;4995035;28;20715;-76
2021/07/03 19:08:19;;;;;;;2.20;1.52;;;20.70;99.90;;;;;;4995234;28;20213;-76
2021/07/03 19:10:46;;;;;;;2.47;1.48;;;20.70;99.90;;;;;;4994750;28;20206;-76
2021/07/03 19:13:13;;;;;;;2.78;1.80;;;20.80;99.90;;;;;;4994757;28;20237;-75
2021/07/03 19:15:43;;;;;;;2.75;1.73;;;20.60;99.90;;;;;;4995001;28;20234;-76
2021/07/03 19:18:12;;;;;;;2.63;1.75;;;20.60;99.90;;;;;;4988971;28;20669;-76
2021/07/03 19:20:39;;;;;;;2.65;1.38;;;20.60;99.90;;;;;;4993276;28;20616;-76
2021/07/03 19:23:06;;;;;;;2.63;1.77;;;20.60;99.90;;;;;;4992770;28;20234;-74
2021/07/03 19:25:33;;;;;;;2.53;1.67;;;20.60;99.90;;;;;;4993267;28;20252;-74
2021/07/03 19:28:00;;;;;;;4.13;2.28;;;20.70;99.90;;;;;;4993771;28;20285;-74
2021/07/03 19:30:27;;;;;;;3.40;2.05;;;20.60;99.90;;;;;;4993962;28;20293;-80
2021/07/03 19:32:56;;;;;;;2.90;2.03;;;20.50;99.90;;;;;;4993520;28;20285;-75
2021/07/03 19:35:24;;;;;;;2.90;1.80;;;20.40;99.90;;;;;;4994847;28;20242;-76
2021/07/03 19:37:51;;;;;;;3.75;2.10;;;20.40;99.90;;;;;;4993939;28;20565;-78
2021/07/03 19:40:18;;;;;;;7.18;4.22;;;20.20;99.90;;;;;;4994084;28;20215;-76
2021/07/03 19:42:45;;;;;;;3.38;2.13;;;20.20;99.90;;;;;;4993745;28;20203;-72
2021/07/03 19:45:14;;;;;;;4.72;2.03;;;20.20;99.90;;;;;;4994080;28;20210;-79
2021/07/03 19:47:42;;;;;;;4.95;1.90;;;20.20;99.90;;;;;;4993587;28;20461;-84
2021/07/03 19:50:12;;;;;;;2.83;2.03;;;20.20;99.90;;;;;;4993785;28;20681;-75
2021/07/03 19:52:40;;;;;;;3.85;1.83;;;20.20;99.90;;;;;;4993682;28;20657;-79
2021/07/03 19:55:08;;;;;;;2.75;2.00;;;20.20;99.90;;;;;;4993645;28;20234;-76
2021/07/03 19:57:36;;;;;;;2.42;2.00;;;20.20;99.90;;;;;;4993987;28;20565;-79
2021/07/03 20:00:05;;;;;;;3.15;2.10;;;20.20;99.90;;;;;;4993476;28;20218;-78
2021/07/03 20:02:31;;;;;;;3.90;2.47;;;20.20;99.90;;;;;;4993767;28;20210;-81
2021/07/03 20:04:58;;;;;;;3.60;2.33;;;20.10;99.90;;;;;;4993642;28;20325;-80
2021/07/03 20:07:26;;;;;;;5.22;2.35;;;20.00;99.90;;;;;;4993734;28;20206;-82
2021/07/03 20:09:53;;;;;;;2.90;2.17;;;20.00;99.90;;;;;;4993941;28;20521;-77
2021/07/03 20:12:20;;;;;;;5.13;2.33;;;19.90;99.90;;;;;;4993692;28;20217;-77
2021/07/03 20:14:47;;;;;;;3.63;2.20;;;19.90;99.90;;;;;;4992463;28;20719;-75
2021/07/03 20:17:14;;;;;;;3.05;2.42;;;20.00;99.90;;;;;;4993205;28;20206;-75
2021/07/03 20:19:40;;;;;;;2.85;2.10;;;20.00;99.90;;;;;;4993272;28;20207;-75
2021/07/03 20:22:07;;;;;;;3.00;2.28;;;19.90;99.90;;;;;;4993335;28;20546;-77
2021/07/03 20:24:36;;;;;;;4.00;2.60;;;19.80;99.90;;;;;;4993370;28;20234;-77
2021/07/03 20:27:03;;;;;;;5.53;2.25;;;19.70;99.90;;;;;;4993690;28;20202;-76
2021/07/03 20:29:30;;;;;;;3.85;2.55;;;19.60;99.90;;;;;;4993800;28;20207;-76
2021/07/03 20:31:58;;;;;;;3.45;2.15;;;19.60;99.90;;;;;;4994069;28;20207;-74
2021/07/03 20:34:25;;;;;;;6.32;3.00;;;19.70;99.90;;;;;;4993067;28;20334;-77
2021/07/03 20:36:52;;;;;;;3.53;1.88;;;19.80;99.90;;;;;;4993514;28;20210;-75
2021/07/03 20:39:19;;;;;;;3.70;2.28;;;19.80;99.90;;;;;;4993570;28;20210;-80